Aeroporto :
LOGIN :

Iscrizione | Disclaimer

   EN    FR    IT 

 










Sommario :    VFR   VFR Marginale   IFR   IFR Intensivo   IFR Molto Intensivo
Visibilità : 
Base nubi : 
>= 8 km
>= 3000ft
5 / 8 km
1000 / 3000 ft
1500m / 5 km
500 / 1000 ft
800 / 1500m
200 / 500 ft
< 800m
< 200 ft
Simboli :   Temporali  Nebbia  Neve Forte  Precipitazioni Forti  Vento > 20 kt
SIGMETs :   Varie  Temporali  Ghiacco  Turbolenza  Onda orograficha  Ceneri Vulcaniche






- Altitudine del aeroporto : 935 ft


EBFS - Florennes

ULTIMO METAR :
  • 061123Z 18018KT 6000 -RA FEW005 SCT012 BKN022 03/02 Q1013 GRN YLO TEMPO GRN

METARs OBSOLETI :
  • 061055Z 18016KT 4000 -RA BR SCT004 SCT018 BKN035 03/02 Q1013 YLO YLO TEMPO GRN
  • 061052Z 18015KT 4000 -RA BR SCT004 SCT018 BKN035 03/02 Q1013 YLO YLO TEMPO GRN
  • 061025Z 18016KT 4000 -RA BR SCT004 SCT018 BKN035 03/02 Q1014 YLO YLO TEMPO AMB
  • 060955Z 18017KT 4000 -RA BR SCT004 SCT018 BKN035 02/02 Q1014 YLO YLO TEMPO AMB
  • 060925Z 18017KT 4000 -RA BR SCT004 SCT018 BKN035 02/02 Q1014 YLO YLO TEMPO AMB
  • 060903Z 18016KT 4000 -RA BR SCT004 SCT018 BKN035 02/01 Q1014 YLO YLO TEMPO AMB
  • 060834Z 18014KT 4000 -RA BR FEW004 BKN035 02/01 Q1015 GRN GRN TEMPO YLO

TAF TAF EBFS
Valido dal 06 a 10 ore il 06 a 19 ore UTC


060841Z 0610/0619 21018G30KT 4500 -RA/-RADZ BR SCT004 BKN006
TEMPO 0610/0619 8000 SCT008 BKN010
PROB30
TEMPO 0610/0612 3000 RA/RADZ BR SCT002 BKN003



MetMap, La meteo Aeronautica in un colpo d'occhio ! - Copyright ORBIFLY Dicembre 2007 - Disclaimer

ORBIFLY MET'MAP TEAM :

Programmazione e sviluppo : Alexandra Zaïnal
Concezione : Baudouin d'Aumeries
Aiuto per la programmazione : Marc-Olivier Méhu
Supporto tecnico e logistico : Manuel Goepfert
Aiuto per la traduzione : Arnaldo La Scala

Contatto : metmap@orbifly.com




FONTI E CREDITI :

   NOAA